sensor_id;sensor_type;location;lat;lon;timestamp;temperature;humidity
71297;SHT31;59082;50.658;4.608;2023-02-11T06:05:47;5.23;99.99
71297;SHT31;59082;50.658;4.608;2023-02-11T06:08:13;5.27;99.99
71297;SHT31;59082;50.658;4.608;2023-02-11T06:10:39;5.25;99.99
71297;SHT31;59082;50.658;4.608;2023-02-11T06:13:07;5.35;99.99
71297;SHT31;59082;50.658;4.608;2023-02-11T06:15:32;5.36;99.99
71297;SHT31;59082;50.658;4.608;2023-02-11T06:17:58;5.36;99.99
71297;SHT31;59082;50.658;4.608;2023-02-11T06:20:24;5.36;99.99
71297;SHT31;59082;50.658;4.608;2023-02-11T06:22:49;5.37;99.99
71297;SHT31;59082;50.658;4.608;2023-02-11T06:25:15;5.42;99.99
71297;SHT31;59082;50.658;4.608;2023-02-11T06:27:40;5.39;99.99
71297;SHT31;59082;50.658;4.608;2023-02-11T06:30:06;5.42;99.99
71297;SHT31;59082;50.658;4.608;2023-02-11T06:32:32;5.37;99.99
71297;SHT31;59082;50.658;4.608;2023-02-11T06:34:58;5.32;99.99
71297;SHT31;59082;50.658;4.608;2023-02-11T06:37:23;5.40;99.99
71297;SHT31;59082;50.658;4.608;2023-02-11T06:39:49;5.39;99.99
71297;SHT31;59082;50.658;4.608;2023-02-11T06:42:14;5.43;99.99
71297;SHT31;59082;50.658;4.608;2023-02-11T06:44:40;5.37;99.99
71297;SHT31;59082;50.658;4.608;2023-02-11T06:47:06;5.40;99.99
71297;SHT31;59082;50.658;4.608;2023-02-11T06:49:31;5.40;99.99
71297;SHT31;59082;50.658;4.608;2023-02-11T06:51:57;5.39;99.99
71297;SHT31;59082;50.658;4.608;2023-02-11T06:54:24;5.40;99.99
71297;SHT31;59082;50.658;4.608;2023-02-11T06:56:51;5.46;99.99
71297;SHT31;59082;50.658;4.608;2023-02-11T06:59:17;5.42;99.99
71297;SHT31;59082;50.658;4.608;2023-02-11T07:01:45;5.48;99.99
71297;SHT31;59082;50.658;4.608;2023-02-11T07:04:11;5.48;99.99
71297;SHT31;59082;50.658;4.608;2023-02-11T07:06:39;5.53;99.99
71297;SHT31;59082;50.658;4.608;2023-02-11T07:09:05;5.44;99.99
71297;SHT31;59082;50.658;4.608;2023-02-11T07:11:31;5.47;99.99
71297;SHT31;59082;50.658;4.608;2023-02-11T07:14:05;5.46;99.99
71297;SHT31;59082;50.658;4.608;2023-02-11T07:16:33;5.51;99.99
71297;SHT31;59082;50.658;4.608;2023-02-11T07:18:59;5.50;99.99
71297;SHT31;59082;50.658;4.608;2023-02-11T07:21:25;5.58;99.99
71297;SHT31;59082;50.658;4.608;2023-02-11T07:23:51;5.60;99.99
71297;SHT31;59082;50.658;4.608;2023-02-11T07:26:20;5.63;99.99
71297;SHT31;59082;50.658;4.608;2023-02-11T07:28:47;5.63;99.99
71297;SHT31;59082;50.658;4.608;2023-02-11T07:31:25;5.60;99.99
71297;SHT31;59082;50.658;4.608;2023-02-11T07:33:52;5.60;99.99
71297;SHT31;59082;50.658;4.608;2023-02-11T07:36:18;5.63;99.99
71297;SHT31;59082;50.658;4.608;2023-02-11T07:38:44;5.74;99.99
71297;SHT31;59082;50.658;4.608;2023-02-11T07:41:18;5.79;99.99
71297;SHT31;59082;50.658;4.608;2023-02-11T07:43:44;5.79;99.99
71297;SHT31;59082;50.658;4.608;2023-02-11T07:46:18;5.75;99.99
71297;SHT31;59082;50.658;4.608;2023-02-11T07:48:44;5.81;99.99
71297;SHT31;59082;50.658;4.608;2023-02-11T07:51:15;5.79;99.99
71297;SHT31;59082;50.658;4.608;2023-02-11T07:53:42;5.81;99.99
71297;SHT31;59082;50.658;4.608;2023-02-11T07:56:09;5.87;99.99
71297;SHT31;59082;50.658;4.608;2023-02-11T07:58:35;5.91;99.99
71297;SHT31;59082;50.658;4.608;2023-02-11T08:01:02;5.85;99.99
71297;SHT31;59082;50.658;4.608;2023-02-11T08:03:28;5.97;99.99
71297;SHT31;59082;50.658;4.608;2023-02-11T08:05:54;6.05;99.99
71297;SHT31;59082;50.658;4.608;2023-02-11T08:08:20;6.06;99.99
71297;SHT31;59082;50.658;4.608;2023-02-11T08:10:46;6.23;99.99
71297;SHT31;59082;50.658;4.608;2023-02-11T08:13:11;6.16;99.99
71297;SHT31;59082;50.658;4.608;2023-02-11T08:15:37;6.25;99.99
71297;SHT31;59082;50.658;4.608;2023-02-11T08:18:03;6.16;99.99
71297;SHT31;59082;50.658;4.608;2023-02-11T08:20:28;6.26;99.99
71297;SHT31;59082;50.658;4.608;2023-02-11T08:22:54;6.22;99.99
71297;SHT31;59082;50.658;4.608;2023-02-11T08:25:19;6.23;99.99
71297;SHT31;59082;50.658;4.608;2023-02-11T08:27:45;6.28;99.99
71297;SHT31;59082;50.658;4.608;2023-02-11T08:30:11;6.30;99.99
71297;SHT31;59082;50.658;4.608;2023-02-11T08:32:36;6.30;99.99
71297;SHT31;59082;50.658;4.608;2023-02-11T08:35:04;6.34;99.99
71297;SHT31;59082;50.658;4.608;2023-02-11T08:37:32;6.29;99.99
71297;SHT31;59082;50.658;4.608;2023-02-11T08:39:58;6.29;99.99
71297;SHT31;59082;50.658;4.608;2023-02-11T08:42:24;6.30;99.99
71297;SHT31;59082;50.658;4.608;2023-02-11T08:44:49;6.29;99.99
71297;SHT31;59082;50.658;4.608;2023-02-11T08:47:16;6.29;99.99
71297;SHT31;59082;50.658;4.608;2023-02-11T08:49:41;6.33;99.99
71297;SHT31;59082;50.658;4.608;2023-02-11T08:52:11;6.32;99.99
71297;SHT31;59082;50.658;4.608;2023-02-11T08:54:37;6.40;99.99
71297;SHT31;59082;50.658;4.608;2023-02-11T08:57:04;6.42;99.99
71297;SHT31;59082;50.658;4.608;2023-02-11T08:59:29;6.30;99.99
71297;SHT31;59082;50.658;4.608;2023-02-11T09:01:55;6.36;99.99
71297;SHT31;59082;50.658;4.608;2023-02-11T09:04:21;6.37;99.99
71297;SHT31;59082;50.658;4.608;2023-02-11T09:06:47;6.39;99.99
71297;SHT31;59082;50.658;4.608;2023-02-11T09:09:14;6.46;99.99
71297;SHT31;59082;50.658;4.608;2023-02-11T09:11:42;6.39;99.99
71297;SHT31;59082;50.658;4.608;2023-02-11T09:14:16;6.40;99.99
71297;SHT31;59082;50.658;4.608;2023-02-11T09:16:42;6.43;99.99
71297;SHT31;59082;50.658;4.608;2023-02-11T09:19:08;6.49;99.99
71297;SHT31;59082;50.658;4.608;2023-02-11T09:21:34;6.43;99.99
71297;SHT31;59082;50.658;4.608;2023-02-11T09:24:00;6.49;99.99
71297;SHT31;59082;50.658;4.608;2023-02-11T09:26:28;6.51;99.99
71297;SHT31;59082;50.658;4.608;2023-02-11T09:28:54;6.54;99.99
71297;SHT31;59082;50.658;4.608;2023-02-11T09:31:22;6.54;99.99
71297;SHT31;59082;50.658;4.608;2023-02-11T09:33:50;6.51;99.99
71297;SHT31;59082;50.658;4.608;2023-02-11T09:36:22;6.60;99.99
71297;SHT31;59082;50.658;4.608;2023-02-11T09:38:50;6.66;99.99
71297;SHT31;59082;50.658;4.608;2023-02-11T09:44:29;6.60;99.99
71297;SHT31;59082;50.658;4.608;2023-02-11T09:46:58;6.58;99.99
71297;SHT31;59082;50.658;4.608;2023-02-11T09:49:37;6.70;99.99
71297;SHT31;59082;50.658;4.608;2023-02-11T09:55:01;6.66;99.99
71297;SHT31;59082;50.658;4.608;2023-02-11T09:57:35;6.76;99.99
71297;SHT31;59082;50.658;4.608;2023-02-11T10:00:16;6.77;99.99
71297;SHT31;59082;50.658;4.608;2023-02-11T10:05:42;6.77;99.99
71297;SHT31;59082;50.658;4.608;2023-02-11T10:08:21;6.91;99.99
71297;SHT31;59082;50.658;4.608;2023-02-11T10:10:55;7.01;99.99
71297;SHT31;59082;50.658;4.608;2023-02-11T10:13:57;6.98;99.99
71297;SHT31;59082;50.658;4.608;2023-02-11T10:16:44;7.11;99.99
71297;SHT31;59082;50.658;4.608;2023-02-11T10:19:29;7.07;99.99
71297;SHT31;59082;50.658;4.608;2023-02-11T10:22:05;6.97;99.99
71297;SHT31;59082;50.658;4.608;2023-02-11T10:24:34;7.14;99.99
71297;SHT31;59082;50.658;4.608;2023-02-11T10:27:03;7.16;99.99
71297;SHT31;59082;50.658;4.608;2023-02-11T10:29:33;7.28;99.99
71297;SHT31;59082;50.658;4.608;2023-02-11T10:32:00;7.33;99.99
71297;SHT31;59082;50.658;4.608;2023-02-11T10:34:28;7.11;99.99
71297;SHT31;59082;50.658;4.608;2023-02-11T10:36:53;7.39;99.99
71297;SHT31;59082;50.658;4.608;2023-02-11T10:39:21;7.36;99.99
71297;SHT31;59082;50.658;4.608;2023-02-11T10:42:04;7.64;99.99
71297;SHT31;59082;50.658;4.608;2023-02-11T10:44:56;7.64;99.99
71297;SHT31;59082;50.658;4.608;2023-02-11T10:47:25;7.60;99.99
71297;SHT31;59082;50.658;4.608;2023-02-11T10:49:51;7.63;99.99
71297;SHT31;59082;50.658;4.608;2023-02-11T10:52:26;7.74;99.99
71297;SHT31;59082;50.658;4.608;2023-02-11T10:57:37;7.77;99.99
71297;SHT31;59082;50.658;4.608;2023-02-11T11:00:41;7.85;99.99
71297;SHT31;59082;50.658;4.608;2023-02-11T11:03:21;7.81;99.99
71297;SHT31;59082;50.658;4.608;2023-02-11T11:05:50;7.88;99.99
71297;SHT31;59082;50.658;4.608;2023-02-11T11:08:18;7.84;99.99
71297;SHT31;59082;50.658;4.608;2023-02-11T11:10:48;7.85;99.99
71297;SHT31;59082;50.658;4.608;2023-02-11T11:13:40;8.04;99.99
71297;SHT31;59082;50.658;4.608;2023-02-11T11:18:49;7.90;99.99
71297;SHT31;59082;50.658;4.608;2023-02-11T11:21:20;7.84;99.99
71297;SHT31;59082;50.658;4.608;2023-02-11T11:24:00;7.78;99.99
71297;SHT31;59082;50.658;4.608;2023-02-11T11:26:40;7.69;99.99
71297;SHT31;59082;50.658;4.608;2023-02-11T11:32:23;7.66;99.99
71297;SHT31;59082;50.658;4.608;2023-02-11T11:34:51;7.71;99.99
71297;SHT31;59082;50.658;4.608;2023-02-11T11:37:32;7.73;99.99
71297;SHT31;59082;50.658;4.608;2023-02-11T11:40:23;7.73;99.99
71297;SHT31;59082;50.658;4.608;2023-02-11T11:45:55;7.85;99.99
71297;SHT31;59082;50.658;4.608;2023-02-11T11:51:13;7.80;99.99
71297;SHT31;59082;50.658;4.608;2023-02-11T11:53:52;7.70;99.99
71297;SHT31;59082;50.658;4.608;2023-02-11T11:56:24;7.73;99.99
71297;SHT31;59082;50.658;4.608;2023-02-11T11:58:50;7.81;99.99
71297;SHT31;59082;50.658;4.608;2023-02-11T12:14:54;7.95;99.99
71297;SHT31;59082;50.658;4.608;2023-02-11T12:20:23;7.94;99.99
71297;SHT31;59082;50.658;4.608;2023-02-11T12:33:59;7.99;99.99
71297;SHT31;59082;50.658;4.608;2023-02-11T12:41:57;7.94;99.99
71297;SHT31;59082;50.658;4.608;2023-02-11T12:55:55;8.18;99.99
71297;SHT31;59082;50.658;4.608;2023-02-11T12:58:26;8.15;99.99
71297;SHT31;59082;50.658;4.608;2023-02-11T13:01:01;8.28;99.99
71297;SHT31;59082;50.658;4.608;2023-02-11T13:03:42;8.26;99.99
71297;SHT31;59082;50.658;4.608;2023-02-11T13:06:14;8.25;99.99
71297;SHT31;59082;50.658;4.608;2023-02-11T13:08:47;8.11;99.99
71297;SHT31;59082;50.658;4.608;2023-02-11T13:11:23;8.15;99.99
71297;SHT31;59082;50.658;4.608;2023-02-11T13:13:56;8.22;99.99
71297;SHT31;59082;50.658;4.608;2023-02-11T13:16:41;8.32;99.99
71297;SHT31;59082;50.658;4.608;2023-02-11T13:24:41;8.31;99.99
71297;SHT31;59082;50.658;4.608;2023-02-11T13:35:26;8.28;99.99
71297;SHT31;59082;50.658;4.608;2023-02-11T13:37:53;8.41;99.99
71297;SHT31;59082;50.658;4.608;2023-02-11T13:40:23;8.38;99.99
71297;SHT31;59082;50.658;4.608;2023-02-11T13:42:55;8.29;99.99
71297;SHT31;59082;50.658;4.608;2023-02-11T13:45:36;8.35;99.99
71297;SHT31;59082;50.658;4.608;2023-02-11T13:48:06;8.43;99.99
71297;SHT31;59082;50.658;4.608;2023-02-11T13:50:37;8.42;99.99
71297;SHT31;59082;50.658;4.608;2023-02-11T13:53:04;8.43;99.99
71297;SHT31;59082;50.658;4.608;2023-02-11T13:55:31;8.52;99.99
71297;SHT31;59082;50.658;4.608;2023-02-11T13:58:18;8.46;99.99
71297;SHT31;59082;50.658;4.608;2023-02-11T14:00:57;8.38;99.99
71297;SHT31;59082;50.658;4.608;2023-02-11T14:03:24;8.36;99.99
71297;SHT31;59082;50.658;4.608;2023-02-11T14:19:41;8.50;99.99
71297;SHT31;59082;50.658;4.608;2023-02-11T14:22:39;8.49;99.99
71297;SHT31;59082;50.658;4.608;2023-02-11T14:25:19;8.52;99.99
71297;SHT31;59082;50.658;4.608;2023-02-11T14:30:31;8.57;99.99
71297;SHT31;59082;50.658;4.608;2023-02-11T14:43:48;8.49;99.99
71297;SHT31;59082;50.658;4.608;2023-02-11T14:46:16;8.46;99.99
71297;SHT31;59082;50.658;4.608;2023-02-11T14:48:46;8.59;99.99
71297;SHT31;59082;50.658;4.608;2023-02-11T14:51:15;8.48;99.99
71297;SHT31;59082;50.658;4.608;2023-02-11T14:53:45;8.53;99.99
71297;SHT31;59082;50.658;4.608;2023-02-11T14:56:21;8.60;99.99
71297;SHT31;59082;50.658;4.608;2023-02-11T14:58:49;8.60;99.99
71297;SHT31;59082;50.658;4.608;2023-02-11T15:04:00;8.56;99.99
71297;SHT31;59082;50.658;4.608;2023-02-11T15:06:30;8.52;99.99
71297;SHT31;59082;50.658;4.608;2023-02-11T15:09:00;8.54;99.99
71297;SHT31;59082;50.658;4.608;2023-02-11T15:11:37;8.57;99.99
71297;SHT31;59082;50.658;4.608;2023-02-11T15:14:09;8.66;99.99
71297;SHT31;59082;50.658;4.608;2023-02-11T15:16:40;8.69;99.99
71297;SHT31;59082;50.658;4.608;2023-02-11T15:19:18;8.70;99.99
71297;SHT31;59082;50.658;4.608;2023-02-11T15:21:45;8.64;99.99
71297;SHT31;59082;50.658;4.608;2023-02-11T15:26:58;8.56;99.99
71297;SHT31;59082;50.658;4.608;2023-02-11T15:29:35;8.60;99.99
71297;SHT31;59082;50.658;4.608;2023-02-11T15:34:31;8.66;99.99
71297;SHT31;59082;50.658;4.608;2023-02-11T15:36:56;8.70;99.99
71297;SHT31;59082;50.658;4.608;2023-02-11T15:39:39;8.71;99.99
71297;SHT31;59082;50.658;4.608;2023-02-11T15:42:27;8.66;99.99
71297;SHT31;59082;50.658;4.608;2023-02-11T15:47:41;8.66;99.99
71297;SHT31;59082;50.658;4.608;2023-02-11T15:50:21;8.60;99.99
71297;SHT31;59082;50.658;4.608;2023-02-11T15:52:51;8.60;99.99
71297;SHT31;59082;50.658;4.608;2023-02-11T15:55:18;8.66;99.99
71297;SHT31;59082;50.658;4.608;2023-02-11T15:57:53;8.63;99.99
71297;SHT31;59082;50.658;4.608;2023-02-11T16:00:23;8.53;99.99
71297;SHT31;59082;50.658;4.608;2023-02-11T16:02:49;8.57;99.99
71297;SHT31;59082;50.658;4.608;2023-02-11T16:05:33;8.53;99.99
71297;SHT31;59082;50.658;4.608;2023-02-11T16:08:11;8.50;99.99
71297;SHT31;59082;50.658;4.608;2023-02-11T16:10:37;8.53;99.99
71297;SHT31;59082;50.658;4.608;2023-02-11T16:21:40;8.45;99.99
71297;SHT31;59082;50.658;4.608;2023-02-11T16:24:29;8.32;99.99
71297;SHT31;59082;50.658;4.608;2023-02-11T16:32:52;8.35;99.99
71297;SHT31;59082;50.658;4.608;2023-02-11T16:35:17;8.25;99.99
71297;SHT31;59082;50.658;4.608;2023-02-11T16:37:43;8.29;99.99
71297;SHT31;59082;50.658;4.608;2023-02-11T16:40:09;8.25;99.99
71297;SHT31;59082;50.658;4.608;2023-02-11T16:42:36;8.24;99.99
71297;SHT31;59082;50.658;4.608;2023-02-11T16:45:01;8.20;99.99
71297;SHT31;59082;50.658;4.608;2023-02-11T16:47:27;8.21;99.99
71297;SHT31;59082;50.658;4.608;2023-02-11T16:49:54;8.22;99.99
71297;SHT31;59082;50.658;4.608;2023-02-11T16:52:21;8.24;99.99
71297;SHT31;59082;50.658;4.608;2023-02-11T16:54:47;8.26;99.99
71297;SHT31;59082;50.658;4.608;2023-02-11T16:57:20;8.25;99.99
71297;SHT31;59082;50.658;4.608;2023-02-11T16:59:46;8.25;99.99
71297;SHT31;59082;50.658;4.608;2023-02-11T17:02:32;8.16;99.99
71297;SHT31;59082;50.658;4.608;2023-02-11T17:05:00;8.16;99.99
71297;SHT31;59082;50.658;4.608;2023-02-11T17:07:27;8.15;99.99
71297;SHT31;59082;50.658;4.608;2023-02-11T17:09:53;8.14;99.99
71297;SHT31;59082;50.658;4.608;2023-02-11T17:12:19;8.12;99.99
71297;SHT31;59082;50.658;4.608;2023-02-11T17:14:45;8.20;99.99
71297;SHT31;59082;50.658;4.608;2023-02-11T17:17:11;8.20;99.99
71297;SHT31;59082;50.658;4.608;2023-02-11T17:19:37;8.21;99.99
71297;SHT31;59082;50.658;4.608;2023-02-11T17:22:03;8.21;99.99
71297;SHT31;59082;50.658;4.608;2023-02-11T17:24:29;8.21;99.99
71297;SHT31;59082;50.658;4.608;2023-02-11T17:26:55;8.15;99.99
71297;SHT31;59082;50.658;4.608;2023-02-11T17:29:22;8.15;99.99
71297;SHT31;59082;50.658;4.608;2023-02-11T17:31:49;8.15;99.99
71297;SHT31;59082;50.658;4.608;2023-02-11T17:34:16;8.16;99.99
71297;SHT31;59082;50.658;4.608;2023-02-11T17:36:42;8.15;99.99
71297;SHT31;59082;50.658;4.608;2023-02-11T17:39:08;8.20;99.99
71297;SHT31;59082;50.658;4.608;2023-02-11T17:41:36;8.12;99.99
71297;SHT31;59082;50.658;4.608;2023-02-11T17:44:01;8.11;99.99
71297;SHT31;59082;50.658;4.608;2023-02-11T17:46:27;8.12;99.99
71297;SHT31;59082;50.658;4.608;2023-02-11T17:49:02;8.15;99.99
71297;SHT31;59082;50.658;4.608;2023-02-11T17:51:37;8.12;99.99
71297;SHT31;59082;50.658;4.608;2023-02-11T17:54:12;8.11;99.99
71297;SHT31;59082;50.658;4.608;2023-02-11T17:56:39;8.06;99.99
71297;SHT31;59082;50.658;4.608;2023-02-11T17:59:06;8.09;99.99
71297;SHT31;59082;50.658;4.608;2023-02-11T18:01:33;8.08;99.99
71297;SHT31;59082;50.658;4.608;2023-02-11T18:03:59;8.08;99.99
71297;SHT31;59082;50.658;4.608;2023-02-11T18:06:28;8.06;99.99
71297;SHT31;59082;50.658;4.608;2023-02-11T18:08:55;8.06;99.99
71297;SHT31;59082;50.658;4.608;2023-02-11T18:11:24;8.01;99.99
71297;SHT31;59082;50.658;4.608;2023-02-11T18:13:50;8.01;99.99
71297;SHT31;59082;50.658;4.608;2023-02-11T18:16:20;7.97;99.99
71297;SHT31;59082;50.658;4.608;2023-02-11T18:18:46;7.98;99.99
71297;SHT31;59082;50.658;4.608;2023-02-11T18:21:17;7.98;99.99
71297;SHT31;59082;50.658;4.608;2023-02-11T18:23:43;8.06;99.99
71297;SHT31;59082;50.658;4.608;2023-02-11T18:26:10;8.05;99.99
71297;SHT31;59082;50.658;4.608;2023-02-11T18:28:37;7.98;99.99
71297;SHT31;59082;50.658;4.608;2023-02-11T18:31:04;8.04;99.99
71297;SHT31;59082;50.658;4.608;2023-02-11T18:33:30;7.99;99.99
71297;SHT31;59082;50.658;4.608;2023-02-11T18:35:56;7.94;99.99
71297;SHT31;59082;50.658;4.608;2023-02-11T18:38:22;7.95;99.99
71297;SHT31;59082;50.658;4.608;2023-02-11T18:40:48;7.95;99.99
71297;SHT31;59082;50.658;4.608;2023-02-11T18:43:21;7.93;99.99
71297;SHT31;59082;50.658;4.608;2023-02-11T18:45:48;7.90;99.99
71297;SHT31;59082;50.658;4.608;2023-02-11T18:48:14;7.90;99.99
71297;SHT31;59082;50.658;4.608;2023-02-11T18:50:41;7.84;99.99
71297;SHT31;59082;50.658;4.608;2023-02-11T18:53:09;7.84;99.99
71297;SHT31;59082;50.658;4.608;2023-02-11T18:55:40;7.88;99.99
71297;SHT31;59082;50.658;4.608;2023-02-11T18:58:06;7.88;99.99
71297;SHT31;59082;50.658;4.608;2023-02-11T19:00:32;7.88;99.99
71297;SHT31;59082;50.658;4.608;2023-02-11T19:02:58;7.84;99.99
71297;SHT31;59082;50.658;4.608;2023-02-11T19:05:23;7.84;99.99
71297;SHT31;59082;50.658;4.608;2023-02-11T19:07:57;7.85;99.99
71297;SHT31;59082;50.658;4.608;2023-02-11T19:10:23;7.91;99.99
71297;SHT31;59082;50.658;4.608;2023-02-11T19:12:48;7.88;99.99
71297;SHT31;59082;50.658;4.608;2023-02-11T19:15:15;7.88;99.99
71297;SHT31;59082;50.658;4.608;2023-02-11T19:17:40;7.90;99.99
71297;SHT31;59082;50.658;4.608;2023-02-11T19:20:06;7.85;99.99
71297;SHT31;59082;50.658;4.608;2023-02-11T19:22:32;7.85;99.99
71297;SHT31;59082;50.658;4.608;2023-02-11T19:24:58;7.90;99.99
71297;SHT31;59082;50.658;4.608;2023-02-11T19:27:24;7.88;99.99
71297;SHT31;59082;50.658;4.608;2023-02-11T19:29:50;7.87;99.99
71297;SHT31;59082;50.658;4.608;2023-02-11T19:32:15;7.85;99.99
71297;SHT31;59082;50.658;4.608;2023-02-11T19:34:41;7.88;99.99
71297;SHT31;59082;50.658;4.608;2023-02-11T19:37:08;7.85;99.99
71297;SHT31;59082;50.658;4.608;2023-02-11T19:39:39;7.80;99.99
71297;SHT31;59082;50.658;4.608;2023-02-11T19:42:05;7.81;99.99
71297;SHT31;59082;50.658;4.608;2023-02-11T19:44:31;7.77;99.99
71297;SHT31;59082;50.658;4.608;2023-02-11T19:46:56;7.77;99.99
71297;SHT31;59082;50.658;4.608;2023-02-11T19:49:22;7.81;99.99
71297;SHT31;59082;50.658;4.608;2023-02-11T19:51:50;7.83;99.99
71297;SHT31;59082;50.658;4.608;2023-02-11T19:54:16;7.83;99.99
71297;SHT31;59082;50.658;4.608;2023-02-11T19:56:42;7.84;99.99
71297;SHT31;59082;50.658;4.608;2023-02-11T19:59:09;7.81;99.99
71297;SHT31;59082;50.658;4.608;2023-02-11T20:01:35;7.83;99.99
71297;SHT31;59082;50.658;4.608;2023-02-11T20:04:01;7.84;99.99
71297;SHT31;59082;50.658;4.608;2023-02-11T20:06:29;7.84;99.99
71297;SHT31;59082;50.658;4.608;2023-02-11T20:08:59;7.81;99.99
71297;SHT31;59082;50.658;4.608;2023-02-11T20:11:27;7.78;99.99
71297;SHT31;59082;50.658;4.608;2023-02-11T20:13:53;7.77;99.99
71297;SHT31;59082;50.658;4.608;2023-02-11T20:16:20;7.80;99.99
71297;SHT31;59082;50.658;4.608;2023-02-11T20:18:47;7.77;99.99
71297;SHT31;59082;50.658;4.608;2023-02-11T20:21:16;7.74;99.99
71297;SHT31;59082;50.658;4.608;2023-02-11T20:23:45;7.74;99.99
71297;SHT31;59082;50.658;4.608;2023-02-11T20:26:14;7.69;99.99
71297;SHT31;59082;50.658;4.608;2023-02-11T20:28:40;7.73;99.99
71297;SHT31;59082;50.658;4.608;2023-02-11T20:31:06;7.71;99.99
71297;SHT31;59082;50.658;4.608;2023-02-11T20:33:32;7.70;99.99
71297;SHT31;59082;50.658;4.608;2023-02-11T20:36:11;7.73;99.99
71297;SHT31;59082;50.658;4.608;2023-02-11T20:38:37;7.76;99.99
71297;SHT31;59082;50.658;4.608;2023-02-11T20:41:08;7.74;99.99
71297;SHT31;59082;50.658;4.608;2023-02-11T20:43:45;7.74;99.99
71297;SHT31;59082;50.658;4.608;2023-02-11T20:46:13;7.78;99.99
71297;SHT31;59082;50.658;4.608;2023-02-11T20:48:40;7.76;99.99
71297;SHT31;59082;50.658;4.608;2023-02-11T20:51:08;7.76;99.99
71297;SHT31;59082;50.658;4.608;2023-02-11T20:53:35;7.77;99.99
71297;SHT31;59082;50.658;4.608;2023-02-11T20:56:05;7.73;99.99
71297;SHT31;59082;50.658;4.608;2023-02-11T20:58:32;7.73;99.99
71297;SHT31;59082;50.658;4.608;2023-02-11T21:01:19;7.69;99.99
71297;SHT31;59082;50.658;4.608;2023-02-11T21:03:55;7.71;99.99
71297;SHT31;59082;50.658;4.608;2023-02-11T21:06:23;7.67;99.99
71297;SHT31;59082;50.658;4.608;2023-02-11T21:08:48;7.63;99.99
71297;SHT31;59082;50.658;4.608;2023-02-11T21:11:15;7.69;99.99
71297;SHT31;59082;50.658;4.608;2023-02-11T21:13:41;7.64;99.99
71297;SHT31;59082;50.658;4.608;2023-02-11T21:16:09;7.66;99.99
71297;SHT31;59082;50.658;4.608;2023-02-11T21:18:36;7.64;99.99
71297;SHT31;59082;50.658;4.608;2023-02-11T21:21:02;7.67;99.99
71297;SHT31;59082;50.658;4.608;2023-02-11T21:23:28;7.69;99.99
71297;SHT31;59082;50.658;4.608;2023-02-11T21:25:54;7.64;99.99
71297;SHT31;59082;50.658;4.608;2023-02-11T21:28:20;7.67;99.99
71297;SHT31;59082;50.658;4.608;2023-02-11T21:30:51;7.62;99.99
71297;SHT31;59082;50.658;4.608;2023-02-11T21:33:17;7.60;99.99
71297;SHT31;59082;50.658;4.608;2023-02-11T21:35:43;7.60;99.99
71297;SHT31;59082;50.658;4.608;2023-02-11T21:38:09;7.60;99.99
71297;SHT31;59082;50.658;4.608;2023-02-11T21:40:35;7.63;99.99
71297;SHT31;59082;50.658;4.608;2023-02-11T21:43:04;7.62;99.99
71297;SHT31;59082;50.658;4.608;2023-02-11T21:45:30;7.64;99.99
71297;SHT31;59082;50.658;4.608;2023-02-11T21:47:56;7.67;99.99
71297;SHT31;59082;50.658;4.608;2023-02-11T21:50:25;7.64;99.99
71297;SHT31;59082;50.658;4.608;2023-02-11T21:52:53;7.62;99.99
71297;SHT31;59082;50.658;4.608;2023-02-11T21:55:19;7.63;99.99
71297;SHT31;59082;50.658;4.608;2023-02-11T21:57:44;7.60;99.99
71297;SHT31;59082;50.658;4.608;2023-02-11T22:00:12;7.63;99.99
71297;SHT31;59082;50.658;4.608;2023-02-11T22:02:38;7.66;99.99
71297;SHT31;59082;50.658;4.608;2023-02-11T22:05:06;7.66;99.99
